Jody Ann — WDJ5593 — position and weather

sailwx.info

Track history (hours):
 
Tides and Currents Weather Stations Pressure Air Temp Water Temp Dewpoint Dewpoint Depression Visibility Wind Speed Wind Dir Waves Ship Positions

Jody Ann

Owner: Dean Equipment Inc., Harvey, LA. More information available from US FCC via Universal Licensing System and Coast Guard Vessel Documentation Center.

Last reported at 2018-Feb-10 16:07 UTC. Time now 2018-Feb-19 16:25 UTC.
Position N 29°34' W 090°32'.
Warning: this ship's position is 9 days out of date.

Length 17 m; draft 2.3 m.

Type: Towing. MMSI: 367789370.

Date/timePositionNaut miles runAvg speedWind from/ knotsBaromVisibWave heightAir tempDewpointWater temp
2018-Feb-10 16:07N 29°34' W 090°32'1 7.2
2018-Feb-10 15:59N 29°34' W 090°33'3 6.6
2018-Feb-10 15:30N 29°35' W 090°37'3 7.0
2018-Feb-10 15:00N 29°36' W 090°40'2 4.5
2018-Feb-10 14:30N 29°36' W 090°43'3 5.3
2018-Feb-10 14:00N 29°34' W 090°45'1 2.3
2018-Feb-10 13:30N 29°33' W 090°45'0 0.0
2018-Feb-10 13:01N 29°33' W 090°45'0 0.0
2018-Feb-10 12:31N 29°33' W 090°45'0 0.0
2018-Feb-10 12:01N 29°33' W 090°45'0 0.0
2018-Feb-10 11:31N 29°33' W 090°45'0 0.0
2018-Feb-10 11:00N 29°33' W 090°45'0 0.0
2018-Feb-10 10:31N 29°33' W 090°45'0 0.0
2018-Feb-10 10:00N 29°33' W 090°45'0 0.0
2018-Feb-10 09:31N 29°33' W 090°45'0 0.0
2018-Feb-10 09:01N 29°33' W 090°45'0 0.0
2018-Feb-10 08:31N 29°33' W 090°45'0 0.0
2018-Feb-10 08:01N 29°33' W 090°45'0 0.0
2018-Feb-10 07:31N 29°33' W 090°45'0 0.0
2018-Feb-10 07:01N 29°33' W 090°45'0 0.0
2018-Feb-10 06:30N 29°33' W 090°45'0 0.0
2018-Feb-10 06:01N 29°33' W 090°45'0 0.0
2018-Feb-10 05:31N 29°33' W 090°45'0 0.0
2018-Feb-10 05:01N 29°33' W 090°45'0 0.0
2018-Feb-10 04:31N 29°33' W 090°45'0 0.0
2018-Feb-10 04:01N 29°33' W 090°45'0 0.0
2018-Feb-10 03:31N 29°33' W 090°45'0 0.0
2018-Feb-10 03:01N 29°33' W 090°45'0 0.0
2018-Feb-10 02:31N 29°33' W 090°45'0 0.0
2018-Feb-10 02:01N 29°33' W 090°45'0 0.0
2018-Feb-10 01:31N 29°33' W 090°45'0 0.0
2018-Feb-10 01:01N 29°33' W 090°45'0 0.0
2018-Feb-10 00:31N 29°33' W 090°45'1 1.8
2018-Feb-10 00:01N 29°32' W 090°46'4 7.2
2018-Feb-09 23:31N 29°32' W 090°50'4 7.0
2018-Feb-09 23:00N 29°33' W 090°54'  
2018-Feb-02 18:07N 29°32' W 090°50'1 6.3
2018-Feb-02 18:00N 29°32' W 090°50'3 6.2
2018-Feb-02 17:30N 29°32' W 090°46'3 5.5
2018-Feb-02 17:00N 29°34' W 090°44'3 6.1
2018-Feb-02 16:31N 29°37' W 090°42'1 0.6
2018-Feb-02 15:30N 29°37' W 090°42'6 5.7
2018-Feb-02 14:30N 29°35' W 090°35'3 6.1
2018-Feb-02 13:58N 29°34' W 090°32'4 6.4
2018-Feb-02 13:16N 29°33' W 090°27'2 6.3
2018-Feb-02 12:59N 29°33' W 090°25'0 0.8
2018-Feb-02 12:26N 29°33' W 090°24'0 0.0
2018-Feb-02 11:57N 29°33' W 090°24'0 0.0
2018-Feb-02 11:27N 29°33' W 090°24'0 0.0
2018-Feb-02 10:58N 29°33' W 090°24'0 0.0
2018-Feb-02 10:29N 29°33' W 090°24'0 0.0
2018-Feb-02 10:00N 29°33' W 090°24'0 0.0
2018-Feb-02 09:27N 29°33' W 090°24'0 0.0
2018-Feb-02 09:00N 29°33' W 090°24'0 0.0
2018-Feb-02 08:30N 29°33' W 090°24'0 0.0
2018-Feb-02 08:00N 29°33' W 090°24'0 0.0
2018-Feb-02 07:30N 29°33' W 090°24'0 0.0
2018-Feb-02 06:53N 29°33' W 090°24'0 0.0
2018-Feb-02 06:30N 29°33' W 090°24'0 0.0
2018-Feb-02 06:00N 29°33' W 090°24'0 0.0
2018-Feb-02 05:29N 29°33' W 090°24'0 0.0
2018-Feb-02 04:45N 29°33' W 090°24'0 0.0
2018-Feb-02 04:30N 29°33' W 090°24'0 0.0
2018-Feb-02 04:00N 29°33' W 090°24'0 0.0
2018-Feb-02 03:30N 29°33' W 090°24'0 0.0
2018-Feb-02 02:54N 29°33' W 090°24'0 0.0
2018-Feb-02 02:30N 29°33' W 090°24'0 0.0
2018-Feb-02 01:58N 29°33' W 090°24'  
Track history (hours):
 
Tides and Currents Weather Stations Pressure Air Temp Water Temp Dewpoint Dewpoint Depression Visibility Wind Speed Wind Dir Waves Ship Positions

Jody Ann

Owner: Dean Equipment Inc., Harvey, LA. More information available from US FCC via Universal Licensing System and Coast Guard Vessel Documentation Center.

Last reported at 2018-Feb-10 16:07 UTC. Time now 2018-Feb-19 16:25 UTC.
Position N 29°34' W 090°32'.
Warning: this ship's position is 9 days out of date.

Length 17 m; draft 2.3 m.

Type: Towing. MMSI: 367789370.

Date/timePositionNaut miles runAvg speedWind from/ knotsBaromVisibWave heightAir tempDewpointWater temp
2018-Feb-10 16:07N 29°34' W 090°32'1 7.2
2018-Feb-10 15:59N 29°34' W 090°33'3 6.6
2018-Feb-10 15:30N 29°35' W 090°37'3 7.0
2018-Feb-10 15:00N 29°36' W 090°40'2 4.5
2018-Feb-10 14:30N 29°36' W 090°43'3 5.3
2018-Feb-10 14:00N 29°34' W 090°45'1 2.3
2018-Feb-10 13:30N 29°33' W 090°45'0 0.0
2018-Feb-10 13:01N 29°33' W 090°45'0 0.0
2018-Feb-10 12:31N 29°33' W 090°45'0 0.0
2018-Feb-10 12:01N 29°33' W 090°45'0 0.0
2018-Feb-10 11:31N 29°33' W 090°45'0 0.0
2018-Feb-10 11:00N 29°33' W 090°45'0 0.0
2018-Feb-10 10:31N 29°33' W 090°45'0 0.0
2018-Feb-10 10:00N 29°33' W 090°45'0 0.0
2018-Feb-10 09:31N 29°33' W 090°45'0 0.0
2018-Feb-10 09:01N 29°33' W 090°45'0 0.0
2018-Feb-10 08:31N 29°33' W 090°45'0 0.0
2018-Feb-10 08:01N 29°33' W 090°45'0 0.0
2018-Feb-10 07:31N 29°33' W 090°45'0 0.0
2018-Feb-10 07:01N 29°33' W 090°45'0 0.0
2018-Feb-10 06:30N 29°33' W 090°45'0 0.0
2018-Feb-10 06:01N 29°33' W 090°45'0 0.0
2018-Feb-10 05:31N 29°33' W 090°45'0 0.0
2018-Feb-10 05:01N 29°33' W 090°45'0 0.0
2018-Feb-10 04:31N 29°33' W 090°45'0 0.0
2018-Feb-10 04:01N 29°33' W 090°45'0 0.0
2018-Feb-10 03:31N 29°33' W 090°45'0 0.0
2018-Feb-10 03:01N 29°33' W 090°45'0 0.0
2018-Feb-10 02:31N 29°33' W 090°45'0 0.0
2018-Feb-10 02:01N 29°33' W 090°45'0 0.0
2018-Feb-10 01:31N 29°33' W 090°45'0 0.0
2018-Feb-10 01:01N 29°33' W 090°45'0 0.0
2018-Feb-10 00:31N 29°33' W 090°45'1 1.8
2018-Feb-10 00:01N 29°32' W 090°46'4 7.2
2018-Feb-09 23:31N 29°32' W 090°50'4 7.0
2018-Feb-09 23:00N 29°33' W 090°54'  
2018-Feb-02 18:07N 29°32' W 090°50'1 6.3
2018-Feb-02 18:00N 29°32' W 090°50'3 6.2
2018-Feb-02 17:30N 29°32' W 090°46'3 5.5
2018-Feb-02 17:00N 29°34' W 090°44'3 6.1
2018-Feb-02 16:31N 29°37' W 090°42'1 0.6
2018-Feb-02 15:30N 29°37' W 090°42'6 5.7
2018-Feb-02 14:30N 29°35' W 090°35'3 6.1
2018-Feb-02 13:58N 29°34' W 090°32'4 6.4
2018-Feb-02 13:16N 29°33' W 090°27'2 6.3
2018-Feb-02 12:59N 29°33' W 090°25'0 0.8
2018-Feb-02 12:26N 29°33' W 090°24'0 0.0
2018-Feb-02 11:57N 29°33' W 090°24'0 0.0
2018-Feb-02 11:27N 29°33' W 090°24'0 0.0
2018-Feb-02 10:58N 29°33' W 090°24'0 0.0
2018-Feb-02 10:29N 29°33' W 090°24'0 0.0
2018-Feb-02 10:00N 29°33' W 090°24'0 0.0
2018-Feb-02 09:27N 29°33' W 090°24'0 0.0
2018-Feb-02 09:00N 29°33' W 090°24'0 0.0
2018-Feb-02 08:30N 29°33' W 090°24'0 0.0
2018-Feb-02 08:00N 29°33' W 090°24'0 0.0
2018-Feb-02 07:30N 29°33' W 090°24'0 0.0
2018-Feb-02 06:53N 29°33' W 090°24'0 0.0
2018-Feb-02 06:30N 29°33' W 090°24'0 0.0
2018-Feb-02 06:00N 29°33' W 090°24'0 0.0
2018-Feb-02 05:29N 29°33' W 090°24'0 0.0
2018-Feb-02 04:45N 29°33' W 090°24'0 0.0
2018-Feb-02 04:30N 29°33' W 090°24'0 0.0
2018-Feb-02 04:00N 29°33' W 090°24'0 0.0
2018-Feb-02 03:30N 29°33' W 090°24'0 0.0
2018-Feb-02 02:54N 29°33' W 090°24'0 0.0
2018-Feb-02 02:30N 29°33' W 090°24'0 0.0
2018-Feb-02 01:58N 29°33' W 090°24'  

Dump ship's entire track history